Time;durP1;ratioP1;P1;durP2;ratioP2;P2;SDS_P1;SDS_P2;PMS_P1;PMS_P2;Temp;Humidity;BMP_temperature;BMP_pressure;BME280_temperature;BME280_humidity;BME280_pressure;Samples;Min_cycle;Max_cycle;Signal;HPM_P1;HPM_P2
2022/10/22 00:02:18;;;;;;;1.83;1.08;;;14.50;99.90;;;;;;4975731;28;20372;-82
2022/10/22 00:04:45;;;;;;;0.85;0.85;;;14.50;99.90;;;;;;4972928;29;20030;-81
2022/10/22 00:07:11;;;;;;;0.82;0.82;;;14.50;99.90;;;;;;4974441;29;20031;-81
2022/10/22 00:09:37;;;;;;;2.00;0.82;;;14.50;99.90;;;;;;4980216;28;20035;-82
2022/10/22 00:12:03;;;;;;;1.50;1.38;;;14.50;99.90;;;;;;4971812;29;20035;-82
2022/10/22 00:14:29;;;;;;;1.20;1.05;;;14.50;99.90;;;;;;4971970;29;20031;-82
2022/10/22 00:16:55;;;;;;;1.48;1.20;;;14.60;99.90;;;;;;4972175;28;20031;-82
2022/10/22 00:19:21;;;;;;;2.88;1.58;;;14.50;99.90;;;;;;4970881;29;20417;-82
2022/10/22 00:21:46;;;;;;;1.13;1.02;;;14.50;99.90;;;;;;4972980;29;20046;-81
2022/10/22 00:24:14;;;;;;;2.05;1.20;;;14.60;99.90;;;;;;4977829;29;20061;-81
2022/10/22 00:26:40;;;;;;;1.65;1.08;;;14.60;99.90;;;;;;4974702;29;20027;-82
2022/10/22 00:29:05;;;;;;;1.33;1.23;;;14.60;99.90;;;;;;4970916;29;20050;-82
2022/10/22 00:31:31;;;;;;;3.67;1.52;;;14.60;99.90;;;;;;4970730;29;20034;-82
2022/10/22 00:33:56;;;;;;;3.47;1.70;;;14.60;99.90;;;;;;4971304;28;20023;-82
2022/10/22 00:36:22;;;;;;;2.92;1.42;;;14.60;99.90;;;;;;4970835;29;20039;-82
2022/10/22 00:38:48;;;;;;;1.70;1.17;;;14.70;99.90;;;;;;4970985;28;20031;-82
2022/10/22 00:41:13;;;;;;;2.65;1.60;;;14.60;99.90;;;;;;4953589;29;20035;-82
2022/10/22 00:43:58;;;;;;;2.40;1.20;;;14.70;99.90;;;;;;4953212;29;20023;-82
2022/10/22 00:46:23;;;;;;;3.58;2.13;;;14.60;99.90;;;;;;4970057;29;20031;-82
2022/10/22 00:48:50;;;;;;;2.05;1.00;;;14.60;99.90;;;;;;4971200;28;20023;-82
2022/10/22 00:51:15;;;;;;;2.10;1.08;;;14.60;99.90;;;;;;4971389;29;20027;-82
2022/10/22 00:53:48;;;;;;;5.13;1.40;;;14.60;99.90;;;;;;4954373;29;20051;-82
2022/10/22 00:56:14;;;;;;;3.53;0.98;;;14.50;99.90;;;;;;4971891;29;20532;-82
2022/10/22 00:58:45;;;;;;;4.90;1.38;;;14.40;99.90;;;;;;4971357;29;20045;-82
2022/10/22 01:01:16;;;;;;;3.70;1.20;;;14.40;99.90;;;;;;4971274;29;20024;-82
2022/10/22 01:03:42;;;;;;;2.25;1.08;;;14.30;99.90;;;;;;4971080;29;20040;-82
2022/10/22 01:06:13;;;;;;;4.97;1.15;;;14.20;99.90;;;;;;4970993;28;20074;-82
2022/10/22 01:08:55;;;;;;;4.30;1.23;;;14.10;99.90;;;;;;4972305;28;20039;-81
2022/10/22 01:11:25;;;;;;;7.70;1.30;;;14.00;99.90;;;;;;4977191;28;20046;-81
2022/10/22 01:14:10;;;;;;;1.55;0.73;;;14.00;99.90;;;;;;4957840;28;20362;-82
2022/10/22 01:17:06;;;;;;;2.75;1.13;;;13.90;99.90;;;;;;4975182;28;20027;-81
2022/10/22 01:19:53;;;;;;;2.92;1.10;;;13.90;99.90;;;;;;4959517;28;20074;-82
2022/10/22 01:22:32;;;;;;;3.53;1.00;;;13.80;99.90;;;;;;4970909;29;20023;-82
2022/10/22 01:25:15;;;;;;;4.88;1.23;;;13.80;99.90;;;;;;4953535;29;20053;-81
2022/10/22 01:28:00;;;;;;;2.88;1.00;;;13.80;99.90;;;;;;4970760;29;20035;-82
2022/10/22 01:30:26;;;;;;;2.20;1.20;;;13.80;99.90;;;;;;4969977;29;20109;-82
2022/10/22 01:32:56;;;;;;;2.38;1.20;;;13.70;99.90;;;;;;4970131;29;20496;-82
2022/10/22 01:35:30;;;;;;;4.03;1.05;;;13.80;99.90;;;;;;4970764;29;20063;-81
2022/10/22 01:37:58;;;;;;;2.80;0.93;;;13.70;99.90;;;;;;4969741;29;20503;-81
2022/10/22 01:40:27;;;;;;;2.80;0.95;;;13.70;99.90;;;;;;4970070;29;20046;-81
2022/10/22 01:42:55;;;;;;;2.15;0.80;;;13.70;99.90;;;;;;4954245;29;20039;-81
2022/10/22 01:45:21;;;;;;;4.07;1.05;;;13.70;99.90;;;;;;4970651;29;20045;-81
2022/10/22 01:47:56;;;;;;;5.45;1.17;;;13.70;99.90;;;;;;4970556;29;20035;-81
2022/10/22 01:50:36;;;;;;;2.45;1.10;;;13.70;99.90;;;;;;4952724;29;20032;-81
2022/10/22 01:53:22;;;;;;;2.33;0.90;;;13.70;99.90;;;;;;4953071;29;20031;-81
2022/10/22 01:56:08;;;;;;;1.33;0.73;;;13.70;99.90;;;;;;4968604;29;20027;-80
2022/10/22 01:58:38;;;;;;;1.30;1.08;;;13.60;99.90;;;;;;4951434;29;20019;-81
2022/10/22 02:01:33;;;;;;;1.52;0.93;;;13.60;99.90;;;;;;4968115;29;20094;-81
2022/10/22 02:03:59;;;;;;;0.82;0.70;;;13.60;99.90;;;;;;4934410;29;20043;-80
2022/10/22 02:06:26;;;;;;;2.88;1.55;;;13.60;99.90;;;;;;4965980;29;20364;-81
2022/10/22 02:08:54;;;;;;;2.70;1.00;;;13.60;99.90;;;;;;4971364;28;20024;-80
2022/10/22 02:11:20;;;;;;;2.50;1.13;;;13.60;99.90;;;;;;4963389;29;20023;-80
2022/10/22 02:13:50;;;;;;;2.15;0.98;;;13.60;99.90;;;;;;4961982;29;20620;-80
2022/10/22 02:16:23;;;;;;;2.75;0.80;;;13.60;99.90;;;;;;4958649;29;20034;-80
2022/10/22 02:18:53;;;;;;;1.50;0.85;;;13.60;99.90;;;;;;4958408;28;20027;-82
2022/10/22 02:21:19;;;;;;;0.73;0.70;;;13.60;99.90;;;;;;4969660;29;20035;-82
2022/10/22 02:23:45;;;;;;;1.10;0.85;;;13.60;99.90;;;;;;4970234;29;20031;-82
2022/10/22 02:26:53;;;;;;;3.30;1.20;;;13.60;99.90;;;;;;4967967;29;20023;-82
2022/10/22 02:29:37;;;;;;;2.45;1.02;;;13.60;99.90;;;;;;4962346;28;20099;-82
2022/10/22 02:32:07;;;;;;;17.35;1.75;;;13.60;99.90;;;;;;4969585;29;20020;-82
2022/10/22 02:34:33;;;;;;;2.50;0.82;;;13.60;99.90;;;;;;4969346;29;20024;-81
2022/10/22 02:37:01;;;;;;;3.42;1.50;;;13.60;99.90;;;;;;4968134;29;20043;-82
2022/10/22 02:39:29;;;;;;;4.13;1.40;;;13.60;99.90;;;;;;4959663;28;20038;-82
2022/10/22 02:41:56;;;;;;;1.85;1.00;;;13.60;99.90;;;;;;4946220;29;20099;-82
2022/10/22 02:44:22;;;;;;;1.45;1.08;;;13.60;99.90;;;;;;4951807;29;20042;-82
2022/10/22 02:46:49;;;;;;;2.20;1.17;;;13.60;99.90;;;;;;4968709;29;20102;-82
2022/10/22 02:49:15;;;;;;;3.20;1.27;;;13.60;99.90;;;;;;4952350;29;20031;-82
2022/10/22 02:51:40;;;;;;;2.28;1.35;;;13.60;99.90;;;;;;4968839;29;20042;-81
2022/10/22 02:54:06;;;;;;;1.88;0.90;;;13.60;99.90;;;;;;4951315;29;20035;-81
2022/10/22 02:56:32;;;;;;;3.85;1.13;;;13.60;99.90;;;;;;4969973;29;20067;-81
2022/10/22 02:58:58;;;;;;;4.43;1.27;;;13.60;99.90;;;;;;4968915;29;20536;-81
2022/10/22 03:01:23;;;;;;;3.80;1.05;;;13.50;99.90;;;;;;4943473;29;20028;-81
2022/10/22 03:03:50;;;;;;;1.75;1.08;;;13.50;99.90;;;;;;4950104;29;20087;-82
2022/10/22 03:06:15;;;;;;;2.95;1.17;;;13.60;99.90;;;;;;4950707;29;20023;-82
2022/10/22 03:08:42;;;;;;;4.10;1.40;;;13.60;99.90;;;;;;4965919;28;20024;-81
2022/10/22 03:11:08;;;;;;;0.70;0.70;;;13.60;99.90;;;;;;4965214;29;20307;-79
2022/10/22 03:13:34;;;;;;;2.53;0.93;;;13.50;99.90;;;;;;4952315;29;20027;-81
2022/10/22 03:16:00;;;;;;;5.90;1.50;;;13.50;99.90;;;;;;4969844;28;20058;-81
2022/10/22 03:18:25;;;;;;;4.78;1.23;;;13.50;99.90;;;;;;4967268;29;20111;-82
2022/10/22 03:21:04;;;;;;;1.10;0.80;;;13.60;99.90;;;;;;4977888;28;20031;-81
2022/10/22 03:23:30;;;;;;;3.63;1.27;;;13.60;99.90;;;;;;4971145;28;20030;-82
2022/10/22 03:25:56;;;;;;;2.92;1.00;;;13.60;99.90;;;;;;4953627;29;20099;-82
2022/10/22 03:28:22;;;;;;;2.95;1.20;;;13.60;99.90;;;;;;4952180;29;20031;-82
2022/10/22 03:30:47;;;;;;;2.05;0.90;;;13.60;99.90;;;;;;4954896;29;20035;-82
2022/10/22 03:33:13;;;;;;;2.50;1.10;;;13.60;99.90;;;;;;4956576;29;20051;-82
2022/10/22 03:35:43;;;;;;;3.42;1.20;;;13.60;99.90;;;;;;4959625;29;20134;-80
2022/10/22 03:38:09;;;;;;;3.05;1.05;;;13.60;99.90;;;;;;4974907;28;20074;-82
2022/10/22 03:40:35;;;;;;;2.67;0.85;;;13.60;99.90;;;;;;4978910;29;20083;-81
2022/10/22 03:43:00;;;;;;;2.85;0.63;;;13.60;99.90;;;;;;4979851;28;20047;-81
2022/10/22 03:45:26;;;;;;;3.42;0.85;;;13.50;99.90;;;;;;4973701;29;20073;-81
2022/10/22 03:47:52;;;;;;;2.70;0.80;;;13.50;99.90;;;;;;4973373;29;20036;-82
2022/10/22 03:50:18;;;;;;;4.80;1.50;;;13.40;99.90;;;;;;4962131;29;20074;-81
2022/10/22 03:52:43;;;;;;;1.58;0.77;;;13.40;99.90;;;;;;4979226;28;20035;-81
2022/10/22 03:55:09;;;;;;;2.33;0.60;;;13.30;99.90;;;;;;4974765;29;20030;-81
2022/10/22 03:57:35;;;;;;;1.27;0.80;;;13.20;99.90;;;;;;4974338;29;20043;-82
2022/10/22 04:00:00;;;;;;;2.60;0.63;;;13.10;99.90;;;;;;4956723;29;20126;-82
2022/10/22 04:02:26;;;;;;;0.98;0.93;;;13.10;99.90;;;;;;4959625;29;20024;-81
2022/10/22 04:04:51;;;;;;;0.77;0.60;;;13.10;99.90;;;;;;4979002;29;20168;-81
2022/10/22 04:07:17;;;;;;;0.75;0.40;;;13.00;99.90;;;;;;4973794;29;20035;-81
2022/10/22 04:09:43;;;;;;;3.65;1.13;;;13.00;99.90;;;;;;4974888;29;20062;-81
2022/10/22 04:12:10;;;;;;;1.95;1.05;;;13.00;99.90;;;;;;4975284;28;20026;-82
2022/10/22 04:14:35;;;;;;;0.57;0.50;;;12.90;99.90;;;;;;4970498;28;20062;-81
2022/10/22 04:17:01;;;;;;;1.55;0.70;;;12.90;99.90;;;;;;4969832;29;20087;-82
2022/10/22 04:19:27;;;;;;;0.60;0.60;;;12.90;99.90;;;;;;4970692;29;20045;-83
2022/10/22 04:21:52;;;;;;;1.58;0.50;;;12.90;99.90;;;;;;4955660;29;20034;-81
2022/10/22 04:24:18;;;;;;;0.60;0.43;;;12.90;99.90;;;;;;4971346;29;20020;-82
2022/10/22 04:26:44;;;;;;;1.95;0.70;;;12.90;99.90;;;;;;4960517;28;20027;-81
2022/10/22 04:29:10;;;;;;;0.75;0.50;;;12.80;99.90;;;;;;4978684;28;20084;-82
2022/10/22 04:31:36;;;;;;;7.22;1.20;;;12.90;99.90;;;;;;4979596;28;20034;-82
2022/10/22 04:34:01;;;;;;;0.98;0.70;;;12.90;99.90;;;;;;4978039;28;20035;-84
2022/10/22 04:36:28;;;;;;;0.73;0.60;;;12.80;99.90;;;;;;4969748;29;20031;-82
2022/10/22 04:38:59;;;;;;;1.30;0.52;;;12.90;99.90;;;;;;4969581;29;20069;-82
2022/10/22 04:41:31;;;;;;;0.82;0.30;;;12.80;99.90;;;;;;4969773;28;20070;-82
2022/10/22 04:43:57;;;;;;;1.38;0.80;;;12.80;99.90;;;;;;4969014;29;20042;-82
2022/10/22 04:46:25;;;;;;;1.23;0.40;;;12.80;99.90;;;;;;4951233;29;20031;-82
2022/10/22 04:48:51;;;;;;;0.68;0.40;;;12.80;99.90;;;;;;4955287;29;20111;-82
2022/10/22 04:51:19;;;;;;;3.45;0.50;;;12.80;99.90;;;;;;4953760;29;20038;-83
2022/10/22 04:53:44;;;;;;;0.32;0.32;;;12.80;99.90;;;;;;4971677;28;20019;-82
2022/10/22 04:56:18;;;;;;;0.52;0.40;;;12.80;99.90;;;;;;4969638;28;20057;-83
2022/10/22 04:58:45;;;;;;;0.30;0.30;;;12.70;99.90;;;;;;4968097;29;20040;-82
2022/10/22 05:01:13;;;;;;;0.45;0.45;;;12.70;99.90;;;;;;4951376;29;20027;-82
2022/10/22 05:03:38;;;;;;;1.05;0.40;;;12.70;99.90;;;;;;4969479;28;20030;-82
2022/10/22 05:06:04;;;;;;;0.73;0.63;;;12.70;99.90;;;;;;4950460;29;20480;-82
2022/10/22 05:08:30;;;;;;;1.00;0.50;;;12.70;99.90;;;;;;4970744;28;20443;-82
2022/10/22 05:10:56;;;;;;;1.33;0.68;;;12.70;99.90;;;;;;4967621;29;20051;-83
2022/10/22 05:13:21;;;;;;;0.43;0.43;;;12.70;99.90;;;;;;4966637;29;20029;-83
2022/10/22 05:15:47;;;;;;;0.55;0.55;;;12.70;99.90;;;;;;4967425;29;20024;-82
2022/10/22 05:18:13;;;;;;;1.42;0.52;;;12.70;99.90;;;;;;4966648;29;20039;-84
2022/10/22 05:20:40;;;;;;;0.45;0.32;;;12.70;99.90;;;;;;4951427;29;20032;-83
2022/10/22 05:23:06;;;;;;;0.50;0.50;;;12.70;99.90;;;;;;4972293;28;20027;-81
2022/10/22 05:25:35;;;;;;;1.02;0.40;;;12.70;99.90;;;;;;4978039;28;20057;-82
2022/10/22 05:28:00;;;;;;;0.30;0.30;;;12.60;99.90;;;;;;4953523;29;20030;-82
2022/10/22 05:30:26;;;;;;;2.33;0.50;;;12.60;99.90;;;;;;4961208;28;20035;-83
2022/10/22 05:32:52;;;;;;;0.50;0.40;;;12.70;99.90;;;;;;4976969;28;20490;-83
2022/10/22 05:35:17;;;;;;;0.43;0.10;;;12.70;99.90;;;;;;4958606;28;20024;-86
2022/10/22 05:37:43;;;;;;;1.48;0.30;;;12.70;99.90;;;;;;4981925;28;20035;-84
2022/10/22 05:40:09;;;;;;;0.20;0.20;;;12.70;99.90;;;;;;4982696;28;20038;-84
2022/10/22 05:42:35;;;;;;;0.52;0.25;;;12.70;99.90;;;;;;4988369;28;20092;-82
2022/10/22 05:45:00;;;;;;;0.40;0.17;;;12.70;99.90;;;;;;4963654;29;20043;-85
2022/10/22 05:47:28;;;;;;;0.22;0.22;;;12.70;99.90;;;;;;4966272;28;20392;-82
2022/10/22 05:49:56;;;;;;;0.10;0.10;;;12.70;99.90;;;;;;4954042;29;20048;-85
2022/10/22 05:52:22;;;;;;;0.43;0.30;;;12.70;99.90;;;;;;4975580;28;20099;-85
2022/10/22 05:54:47;;;;;;;0.20;0.20;;;12.70;99.90;;;;;;4976620;28;20042;-84
2022/10/22 05:57:13;;;;;;;0.25;0.15;;;12.70;99.90;;;;;;4979439;28;20026;-86
2022/10/22 05:59:39;;;;;;;0.30;0.30;;;12.70;99.90;;;;;;4964200;28;20027;-85
2022/10/22 06:02:05;;;;;;;1.95;0.30;;;12.70;99.90;;;;;;4976481;28;20029;-84
2022/10/22 06:04:31;;;;;;;0.25;0.25;;;12.80;99.90;;;;;;4971755;28;20035;-84
2022/10/22 06:06:57;;;;;;;0.30;0.30;;;12.80;99.90;;;;;;4983093;28;20488;-84
2022/10/22 06:09:34;;;;;;;0.32;0.30;;;12.80;99.90;;;;;;4967541;28;20023;-84
2022/10/22 06:12:00;;;;;;;1.67;0.30;;;12.80;99.90;;;;;;4940351;29;20043;-84
2022/10/22 06:14:26;;;;;;;0.20;0.20;;;12.80;99.90;;;;;;4948679;29;20103;-81
2022/10/22 06:16:53;;;;;;;0.35;0.30;;;12.80;99.90;;;;;;4947703;29;20015;-82
2022/10/22 06:19:24;;;;;;;0.95;0.35;;;12.90;99.90;;;;;;4963452;28;20114;-83
2022/10/22 06:21:50;;;;;;;1.77;0.20;;;12.90;99.90;;;;;;4969196;29;20026;-83
2022/10/22 06:24:16;;;;;;;0.10;0.10;;;12.90;99.90;;;;;;4951049;29;20039;-83
2022/10/22 06:26:41;;;;;;;1.45;0.20;;;12.90;99.90;;;;;;4968502;29;20030;-83
2022/10/22 06:29:07;;;;;;;0.17;0.17;;;12.90;99.90;;;;;;4967379;29;20027;-84
2022/10/22 06:31:36;;;;;;;2.97;0.30;;;12.90;99.90;;;;;;4967597;29;20035;-83
2022/10/22 06:34:03;;;;;;;1.63;0.30;;;12.90;99.90;;;;;;4973181;29;20027;-82
2022/10/22 06:36:29;;;;;;;0.43;0.30;;;13.00;99.90;;;;;;4969720;29;20082;-82
2022/10/22 06:38:55;;;;;;;0.85;0.38;;;13.00;99.90;;;;;;4967029;28;20054;-84
2022/10/22 06:41:21;;;;;;;0.10;0.10;;;13.00;99.90;;;;;;4967069;29;20118;-83
2022/10/22 06:43:47;;;;;;;1.33;0.20;;;13.00;99.90;;;;;;4965551;29;20027;-86
2022/10/22 06:46:18;;;;;;;0.20;0.20;;;13.00;99.90;;;;;;4966051;29;20028;-84
2022/10/22 06:48:52;;;;;;;1.27;0.43;;;13.10;99.90;;;;;;4966266;29;20023;-84
2022/10/22 06:51:18;;;;;;;0.40;0.40;;;13.20;99.90;;;;;;4968089;28;20027;-83
2022/10/22 06:53:44;;;;;;;0.55;0.22;;;13.20;99.90;;;;;;4966670;29;20042;-84
2022/10/22 06:56:13;;;;;;;1.50;1.02;;;13.30;99.90;;;;;;4970823;29;20047;-81
2022/10/22 06:58:38;;;;;;;0.43;0.40;;;13.30;99.90;;;;;;4977051;28;20027;-83
2022/10/22 07:01:08;;;;;;;0.30;0.30;;;13.30;99.90;;;;;;4970703;29;20037;-84
2022/10/22 07:03:34;;;;;;;1.65;0.30;;;13.30;99.90;;;;;;4963700;28;20043;-84
2022/10/22 07:06:06;;;;;;;0.60;0.40;;;13.30;99.90;;;;;;4949110;29;20030;-84
2022/10/22 07:08:32;;;;;;;0.95;0.30;;;13.30;99.90;;;;;;4954727;29;20507;-84
2022/10/22 07:11:09;;;;;;;0.25;0.25;;;13.30;99.90;;;;;;4951437;29;20027;-82
2022/10/22 07:13:35;;;;;;;0.38;0.30;;;13.30;99.90;;;;;;4950108;29;20042;-84
2022/10/22 07:16:02;;;;;;;0.93;0.30;;;13.30;99.90;;;;;;4963491;28;20027;-84
2022/10/22 07:18:28;;;;;;;0.35;0.35;;;13.30;99.90;;;;;;4961191;29;20038;-85
2022/10/22 07:20:54;;;;;;;0.40;0.40;;;13.30;99.90;;;;;;4969563;29;20429;-83
2022/10/22 07:23:19;;;;;;;0.50;0.47;;;13.30;99.90;;;;;;4968669;29;20058;-83
2022/10/22 07:25:45;;;;;;;0.95;0.40;;;13.30;99.90;;;;;;4968543;29;20023;-82
2022/10/22 07:28:11;;;;;;;0.43;0.43;;;13.30;99.90;;;;;;4981234;28;20051;-82
2022/10/22 07:30:37;;;;;;;0.38;0.20;;;13.40;99.90;;;;;;4962668;28;20043;-84
2022/10/22 07:33:04;;;;;;;0.88;0.60;;;13.50;99.90;;;;;;4979357;28;20038;-85
2022/10/22 07:35:30;;;;;;;0.30;0.20;;;13.50;99.90;;;;;;4975026;29;20042;-85
2022/10/22 07:37:55;;;;;;;0.40;0.28;;;13.60;99.90;;;;;;4974095;28;20038;-83
2022/10/22 07:40:21;;;;;;;0.20;0.20;;;13.70;99.90;;;;;;4979313;29;20016;-83
2022/10/22 07:42:47;;;;;;;1.38;0.40;;;13.80;99.90;;;;;;4978356;29;20055;-82
2022/10/22 07:45:12;;;;;;;0.65;0.35;;;13.90;99.90;;;;;;4975892;29;20027;-83
2022/10/22 07:47:38;;;;;;;0.30;0.30;;;14.00;99.90;;;;;;4956947;29;20034;-85
2022/10/22 07:50:06;;;;;;;2.08;0.47;;;14.10;99.90;;;;;;4955834;29;20408;-83
2022/10/22 07:52:32;;;;;;;0.40;0.40;;;14.20;99.90;;;;;;4971567;28;20050;-84
2022/10/22 07:54:57;;;;;;;0.50;0.50;;;14.30;99.90;;;;;;4970466;29;20063;-83
2022/10/22 07:57:23;;;;;;;0.32;0.32;;;14.40;99.90;;;;;;4970518;29;20038;-84
2022/10/22 07:59:49;;;;;;;0.52;0.40;;;14.50;99.90;;;;;;4970819;29;20031;-84
2022/10/22 08:02:15;;;;;;;0.88;0.40;;;14.60;99.90;;;;;;4972483;29;20037;-84
2022/10/22 08:04:40;;;;;;;0.45;0.30;;;14.70;99.90;;;;;;4971585;29;20035;-84
2022/10/22 08:07:06;;;;;;;1.55;0.55;;;14.70;99.90;;;;;;4971546;28;20067;-83
2022/10/22 08:09:32;;;;;;;1.40;0.32;;;14.80;99.90;;;;;;4952931;29;20102;-83
2022/10/22 08:11:57;;;;;;;0.82;0.40;;;14.80;99.90;;;;;;4970459;29;20031;-84
2022/10/22 08:14:23;;;;;;;1.95;0.60;;;14.80;99.90;;;;;;4970995;29;20460;-83
2022/10/22 08:16:48;;;;;;;0.52;0.50;;;14.70;99.90;;;;;;4968960;28;20058;-83
2022/10/22 08:19:27;;;;;;;0.25;0.25;;;14.60;99.90;;;;;;4970038;28;20035;-84
2022/10/22 08:21:53;;;;;;;1.90;0.40;;;14.70;99.90;;;;;;4956710;29;20381;-84
2022/10/22 08:24:19;;;;;;;0.98;0.50;;;14.70;99.90;;;;;;4969733;28;20034;-84
2022/10/22 08:26:44;;;;;;;0.50;0.50;;;14.70;99.90;;;;;;4952258;29;20034;-85
2022/10/22 08:29:10;;;;;;;0.50;0.45;;;14.70;99.90;;;;;;4952185;29;20099;-84
2022/10/22 08:31:36;;;;;;;0.50;0.50;;;14.70;99.90;;;;;;4968045;29;20059;-84
2022/10/22 08:34:02;;;;;;;0.50;0.50;;;14.60;99.90;;;;;;4953942;28;20031;-83
2022/10/22 08:36:27;;;;;;;0.70;0.47;;;14.70;99.90;;;;;;4968919;29;20023;-84
2022/10/22 08:38:53;;;;;;;0.47;0.40;;;14.70;99.90;;;;;;4950870;29;20547;-84
2022/10/22 08:41:21;;;;;;;1.20;0.57;;;14.80;99.90;;;;;;4968490;29;20032;-82
2022/10/22 08:44:02;;;;;;;0.45;0.40;;;14.80;99.90;;;;;;4970025;28;20039;-84
2022/10/22 08:46:46;;;;;;;0.77;0.50;;;14.80;99.90;;;;;;4950844;29;20059;-83
2022/10/22 08:49:27;;;;;;;0.40;0.40;;;14.90;99.90;;;;;;4969720;29;20042;-84
2022/10/22 08:51:54;;;;;;;1.90;0.93;;;14.90;99.90;;;;;;4970427;28;20034;-84
2022/10/22 08:54:52;;;;;;;1.75;0.85;;;14.90;99.90;;;;;;4952224;29;20019;-84
2022/10/22 08:57:44;;;;;;;0.40;0.40;;;14.90;99.90;;;;;;4935589;29;20027;-84
2022/10/22 09:00:22;;;;;;;0.95;0.70;;;15.00;99.90;;;;;;4970598;29;20027;-83
2022/10/22 09:03:00;;;;;;;0.75;0.60;;;15.10;99.90;;;;;;4968158;29;20051;-83
2022/10/22 09:05:43;;;;;;;0.45;0.45;;;15.20;99.90;;;;;;4968107;29;20031;-84
2022/10/22 09:08:16;;;;;;;0.70;0.70;;;15.30;99.90;;;;;;4971976;28;20043;-85
2022/10/22 09:10:49;;;;;;;;;;;15.40;99.90;;;;;;4968994;29;20034;-85
2022/10/22 09:13:18;;;;;;;0.30;0.30;;;15.50;99.90;;;;;;4969603;29;19907;-84
2022/10/22 09:15:54;;;;;;;0.65;0.45;;;15.50;99.90;;;;;;4970022;29;20023;-84
2022/10/22 09:18:42;;;;;;;4.78;0.60;;;15.50;99.90;;;;;;4969717;29;20107;-84
2022/10/22 09:21:28;;;;;;;0.50;0.50;;;15.50;99.90;;;;;;4969551;29;20046;-84
2022/10/22 09:24:23;;;;;;;0.95;0.57;;;15.40;99.90;;;;;;4957249;29;20011;-83
2022/10/22 09:26:49;;;;;;;0.38;0.38;;;15.40;99.90;;;;;;4974545;28;20031;-83
2022/10/22 09:29:23;;;;;;;0.30;0.30;;;15.40;99.90;;;;;;4970665;28;20019;-83
2022/10/22 09:31:49;;;;;;;0.47;0.47;;;15.60;99.90;;;;;;4978015;28;20034;-84
2022/10/22 09:34:19;;;;;;;0.82;0.40;;;15.80;99.90;;;;;;4957370;28;20043;-83
2022/10/22 09:36:45;;;;;;;0.50;0.50;;;16.00;99.90;;;;;;4961548;28;20011;-82
2022/10/22 09:39:38;;;;;;;0.47;0.43;;;16.10;99.90;;;;;;4971539;28;20086;-84
2022/10/22 09:42:06;;;;;;;0.30;0.30;;;16.20;99.90;;;;;;4953628;29;20027;-84
2022/10/22 09:44:36;;;;;;;0.22;0.22;;;16.30;99.90;;;;;;4975476;29;20075;-83
2022/10/22 09:47:06;;;;;;;0.32;0.30;;;16.40;99.90;;;;;;4973322;28;20035;-84
2022/10/22 09:49:34;;;;;;;0.70;0.63;;;16.50;99.60;;;;;;4952135;29;20039;-85
2022/10/22 09:52:01;;;;;;;1.13;0.50;;;16.60;99.20;;;;;;4969668;29;20027;-83
2022/10/22 09:54:32;;;;;;;1.80;0.40;;;16.60;98.60;;;;;;4974858;29;20035;-85
2022/10/22 09:57:04;;;;;;;0.32;0.30;;;16.60;98.50;;;;;;4973582;29;20027;-84
2022/10/22 09:59:31;;;;;;;;;;;16.60;98.50;;;;;;4956024;29;20049;-84
2022/10/22 10:02:12;;;;;;;1.10;0.63;;;16.60;98.40;;;;;;4956300;28;19923;-84
2022/10/22 10:04:56;;;;;;;0.60;0.60;;;16.40;98.20;;;;;;4938360;29;20076;-84
2022/10/22 10:07:25;;;;;;;0.50;0.50;;;16.20;98.60;;;;;;4954385;29;20051;-84
2022/10/22 10:09:52;;;;;;;0.90;0.57;;;16.10;99.00;;;;;;4975339;28;20075;-83
2022/10/22 10:12:40;;;;;;;0.47;0.47;;;16.00;99.30;;;;;;4977986;28;20011;-82
2022/10/22 10:15:29;;;;;;;0.57;0.50;;;16.00;99.50;;;;;;4961121;28;20098;-83
2022/10/22 10:18:28;;;;;;;0.65;0.60;;;16.20;99.60;;;;;;4975195;29;20051;-85
2022/10/22 10:21:37;;;;;;;1.33;0.60;;;16.30;99.10;;;;;;4951722;29;20027;-84
2022/10/22 10:24:09;;;;;;;1.00;0.55;;;16.60;98.90;;;;;;4965151;28;20086;-85
2022/10/22 10:26:51;;;;;;;0.73;0.60;;;16.80;98.20;;;;;;4950634;29;20095;-84
2022/10/22 10:29:22;;;;;;;2.10;0.50;;;16.80;97.90;;;;;;4951381;29;20427;-84
2022/10/22 10:32:18;;;;;;;0.43;0.40;;;16.70;97.80;;;;;;4968053;29;20263;-85
2022/10/22 10:35:14;;;;;;;0.73;0.43;;;16.70;97.50;;;;;;4950220;29;20094;-84
2022/10/22 10:38:18;;;;;;;0.40;0.40;;;16.70;97.70;;;;;;4950313;29;20058;-85
2022/10/22 10:40:54;;;;;;;0.75;0.68;;;16.80;97.80;;;;;;4937110;29;20054;-84
2022/10/22 10:43:23;;;;;;;1.05;0.75;;;16.90;97.70;;;;;;4966336;29;20034;-84
2022/10/22 10:45:48;;;;;;;0.88;0.68;;;17.00;97.50;;;;;;4967496;29;20042;-83
2022/10/22 10:48:40;;;;;;;0.80;0.80;;;17.20;97.10;;;;;;4971023;29;20028;-84
2022/10/22 10:51:32;;;;;;;1.65;0.40;;;17.50;96.90;;;;;;4959904;28;20027;-83
2022/10/22 10:54:19;;;;;;;2.42;0.63;;;17.90;95.60;;;;;;4974510;29;20023;-84
2022/10/22 10:57:13;;;;;;;3.13;0.95;;;18.20;94.50;;;;;;4975083;29;20004;-83
2022/10/22 11:00:01;;;;;;;1.80;0.80;;;18.30;93.90;;;;;;4973735;29;20019;-84
2022/10/22 11:02:52;;;;;;;1.00;0.60;;;18.30;93.60;;;;;;4971172;29;20027;-83
2022/10/22 11:05:33;;;;;;;2.08;0.50;;;18.30;93.20;;;;;;4954109;29;20046;-84
2022/10/22 11:08:07;;;;;;;0.80;0.70;;;18.10;93.20;;;;;;4970238;29;20023;-84
2022/10/22 11:11:06;;;;;;;2.63;0.90;;;18.10;93.20;;;;;;4952301;29;20023;-84
2022/10/22 11:13:56;;;;;;;1.13;0.73;;;18.10;92.70;;;;;;4935086;29;20035;-84
2022/10/22 11:16:38;;;;;;;1.45;0.82;;;18.10;92.80;;;;;;4974662;28;20034;-83
2022/10/22 11:19:19;;;;;;;3.58;1.08;;;18.10;92.90;;;;;;4960411;29;20074;-83
2022/10/22 11:22:04;;;;;;;1.75;0.90;;;18.30;92.70;;;;;;4978046;28;20031;-83
2022/10/22 11:24:46;;;;;;;1.88;1.20;;;18.60;91.70;;;;;;4978262;28;20089;-84
2022/10/22 11:27:52;;;;;;;1.55;1.30;;;18.90;91.00;;;;;;4943993;29;20038;-85
2022/10/22 11:30:20;;;;;;;0.75;0.70;;;19.10;90.30;;;;;;4972013;28;20047;-83
2022/10/22 11:32:54;;;;;;;2.50;1.13;;;19.10;90.30;;;;;;4977675;28;20159;-83
2022/10/22 11:35:27;;;;;;;1.30;0.90;;;19.10;90.30;;;;;;4976875;28;20016;-85
2022/10/22 11:37:55;;;;;;;1.13;0.82;;;19.30;90.30;;;;;;4976841;28;20043;-84
2022/10/22 11:40:34;;;;;;;1.88;1.30;;;19.60;88.30;;;;;;4957211;29;20022;-83
2022/10/22 11:43:24;;;;;;;3.67;1.25;;;19.70;88.30;;;;;;4975431;29;20031;-84
2022/10/22 11:46:14;;;;;;;1.40;1.13;;;20.00;87.20;;;;;;4975806;29;20023;-83
2022/10/22 11:48:40;;;;;;;1.58;0.80;;;20.10;85.90;;;;;;4975147;29;20032;-84
2022/10/22 11:51:31;;;;;;;0.73;0.70;;;20.10;86.00;;;;;;4975296;28;20091;-83
2022/10/22 11:53:57;;;;;;;1.48;0.70;;;20.20;86.10;;;;;;4969683;23;20035;-84
2022/10/22 11:56:36;;;;;;;0.93;0.73;;;20.10;83.60;;;;;;4938767;29;20526;-84
2022/10/22 11:59:02;;;;;;;2.95;0.70;;;20.00;84.30;;;;;;4924991;29;20055;-84
2022/10/22 12:01:40;;;;;;;2.15;0.70;;;19.90;82.10;;;;;;4924702;29;20038;-84
2022/10/22 12:04:21;;;;;;;1.02;0.70;;;19.80;82.90;;;;;;4941284;29;20027;-85
2022/10/22 12:06:59;;;;;;;1.00;0.60;;;19.60;81.90;;;;;;4940135;29;20051;-86
2022/10/22 12:09:29;;;;;;;0.73;0.60;;;19.30;82.50;;;;;;4923066;29;20024;-85
2022/10/22 12:12:03;;;;;;;1.10;0.88;;;19.10;84.00;;;;;;4942147;29;20110;-85
2022/10/22 12:14:39;;;;;;;0.50;0.40;;;18.90;84.20;;;;;;4948547;29;20041;-85
2022/10/22 12:17:12;;;;;;;2.95;0.85;;;18.80;85.40;;;;;;4930595;29;20070;-85
2022/10/22 12:19:48;;;;;;;1.00;0.63;;;18.60;86.10;;;;;;4952178;29;20114;-85
2022/10/22 12:22:15;;;;;;;0.88;0.50;;;18.50;87.20;;;;;;4945950;29;20023;-86
2022/10/22 12:24:44;;;;;;;0.80;0.50;;;18.20;88.00;;;;;;4921621;29;20043;-86
2022/10/22 12:27:22;;;;;;;1.58;0.60;;;18.10;88.80;;;;;;4924670;29;20454;-86
2022/10/22 12:29:48;;;;;;;0.95;0.50;;;18.00;88.90;;;;;;4927353;29;20020;-85
2022/10/22 12:32:15;;;;;;;2.60;0.65;;;17.90;90.00;;;;;;4925612;29;20028;-85
2022/10/22 12:34:51;;;;;;;1.08;0.60;;;17.80;90.30;;;;;;4938576;28;20121;-84
2022/10/22 12:37:18;;;;;;;0.32;0.30;;;17.80;90.50;;;;;;4942938;28;20068;-84
2022/10/22 12:39:45;;;;;;;2.53;0.45;;;18.10;90.20;;;;;;4943371;28;20047;-84
2022/10/22 12:42:16;;;;;;;2.08;0.85;;;18.30;88.90;;;;;;4944676;28;20233;-84
2022/10/22 12:44:45;;;;;;;2.30;0.82;;;18.40;87.70;;;;;;4944673;28;20031;-84
2022/10/22 12:47:16;;;;;;;1.80;0.50;;;18.30;87.60;;;;;;4961477;28;20063;-84
2022/10/22 12:49:48;;;;;;;2.17;0.93;;;18.30;88.60;;;;;;4937990;29;20127;-86
2022/10/22 12:52:18;;;;;;;1.25;0.52;;;18.50;86.90;;;;;;4941027;29;20274;-85
2022/10/22 12:54:46;;;;;;;2.35;0.60;;;18.50;86.50;;;;;;4917697;29;20110;-86
2022/10/22 12:57:15;;;;;;;0.98;0.98;;;18.60;86.00;;;;;;4921874;29;20092;-85
2022/10/22 12:59:45;;;;;;;1.50;0.60;;;18.70;84.60;;;;;;4924022;29;20082;-85
2022/10/22 13:02:20;;;;;;;1.90;0.50;;;18.80;84.20;;;;;;4921952;29;20036;-85
2022/10/22 13:05:16;;;;;;;3.20;1.13;;;19.00;84.20;;;;;;4938426;29;20027;-85
2022/10/22 13:07:46;;;;;;;0.55;0.50;;;19.30;83.00;;;;;;4949282;29;20055;-85
2022/10/22 13:10:49;;;;;;;3.65;0.80;;;19.60;82.70;;;;;;4925788;29;20046;-86